sensor_id;sensor_type;location;lat;lon;timestamp;P1;durP1;ratioP1;P2;durP2;ratioP2
42200;SDS011;27869;51.442;7.540;2022-10-01T00:00:23;13.88;;;5.05;;
42200;SDS011;27869;51.442;7.540;2022-10-01T00:02:50;9.88;;;2.88;;
42200;SDS011;27869;51.442;7.540;2022-10-01T00:05:18;10.57;;;3.25;;
42200;SDS011;27869;51.442;7.540;2022-10-01T00:07:46;17.25;;;5.38;;
42200;SDS011;27869;51.442;7.540;2022-10-01T00:10:13;11.65;;;3.63;;
42200;SDS011;27869;51.442;7.540;2022-10-01T00:12:42;9.38;;;2.75;;
42200;SDS011;27869;51.442;7.540;2022-10-01T00:15:14;9.10;;;2.60;;
42200;SDS011;27869;51.442;7.540;2022-10-01T00:17:45;9.68;;;2.60;;
42200;SDS011;27869;51.442;7.540;2022-10-01T00:20:12;8.95;;;2.60;;
42200;SDS011;27869;51.442;7.540;2022-10-01T00:22:39;8.90;;;2.30;;
42200;SDS011;27869;51.442;7.540;2022-10-01T00:25:06;9.52;;;2.63;;
42200;SDS011;27869;51.442;7.540;2022-10-01T00:27:33;8.23;;;2.28;;
42200;SDS011;27869;51.442;7.540;2022-10-01T00:30:01;11.63;;;2.80;;
42200;SDS011;27869;51.442;7.540;2022-10-01T00:32:30;10.38;;;2.55;;
42200;SDS011;27869;51.442;7.540;2022-10-01T00:34:58;7.00;;;2.33;;
42200;SDS011;27869;51.442;7.540;2022-10-01T00:37:26;10.02;;;2.95;;
42200;SDS011;27869;51.442;7.540;2022-10-01T00:39:54;8.32;;;2.47;;
42200;SDS011;27869;51.442;7.540;2022-10-01T00:42:21;10.13;;;2.78;;
42200;SDS011;27869;51.442;7.540;2022-10-01T00:44:49;9.85;;;2.60;;
42200;SDS011;27869;51.442;7.540;2022-10-01T00:47:21;7.38;;;2.03;;
42200;SDS011;27869;51.442;7.540;2022-10-01T00:49:54;7.97;;;2.25;;
42200;SDS011;27869;51.442;7.540;2022-10-01T00:52:27;9.15;;;2.17;;
42200;SDS011;27869;51.442;7.540;2022-10-01T00:54:57;6.88;;;1.92;;
42200;SDS011;27869;51.442;7.540;2022-10-01T00:57:28;8.68;;;2.15;;
42200;SDS011;27869;51.442;7.540;2022-10-01T00:59:57;6.80;;;2.05;;
42200;SDS011;27869;51.442;7.540;2022-10-01T01:02:26;8.43;;;2.00;;
42200;SDS011;27869;51.442;7.540;2022-10-01T01:04:54;6.78;;;1.90;;
42200;SDS011;27869;51.442;7.540;2022-10-01T01:07:23;8.35;;;2.17;;
42200;SDS011;27869;51.442;7.540;2022-10-01T01:09:51;7.32;;;2.00;;
42200;SDS011;27869;51.442;7.540;2022-10-01T01:12:23;9.00;;;1.85;;
42200;SDS011;27869;51.442;7.540;2022-10-01T01:15:01;7.65;;;2.22;;
42200;SDS011;27869;51.442;7.540;2022-10-01T01:17:38;9.85;;;2.15;;
42200;SDS011;27869;51.442;7.540;2022-10-01T01:20:19;7.30;;;2.00;;
42200;SDS011;27869;51.442;7.540;2022-10-01T01:23:01;7.88;;;2.22;;
42200;SDS011;27869;51.442;7.540;2022-10-01T01:25:36;8.23;;;1.95;;
42200;SDS011;27869;51.442;7.540;2022-10-01T01:28:18;8.05;;;2.13;;
42200;SDS011;27869;51.442;7.540;2022-10-01T01:30:48;9.70;;;2.60;;
42200;SDS011;27869;51.442;7.540;2022-10-01T01:33:20;7.60;;;2.30;;
42200;SDS011;27869;51.442;7.540;2022-10-01T01:35:49;7.75;;;2.30;;
42200;SDS011;27869;51.442;7.540;2022-10-01T01:38:20;7.10;;;2.22;;
42200;SDS011;27869;51.442;7.540;2022-10-01T01:40:52;8.88;;;2.45;;
42200;SDS011;27869;51.442;7.540;2022-10-01T01:43:23;7.40;;;2.22;;
42200;SDS011;27869;51.442;7.540;2022-10-01T01:45:55;7.43;;;1.92;;
42200;SDS011;27869;51.442;7.540;2022-10-01T01:48:24;8.18;;;2.50;;
42200;SDS011;27869;51.442;7.540;2022-10-01T01:50:55;9.07;;;2.60;;
42200;SDS011;27869;51.442;7.540;2022-10-01T01:55:56;10.40;;;2.42;;
42200;SDS011;27869;51.442;7.540;2022-10-01T01:58:26;8.40;;;2.28;;
42200;SDS011;27869;51.442;7.540;2022-10-01T02:00:54;7.80;;;2.45;;
42200;SDS011;27869;51.442;7.540;2022-10-01T02:03:21;8.95;;;2.55;;
42200;SDS011;27869;51.442;7.540;2022-10-01T02:05:52;11.18;;;2.40;;
42200;SDS011;27869;51.442;7.540;2022-10-01T02:08:29;8.38;;;2.38;;
42200;SDS011;27869;51.442;7.540;2022-10-01T02:13:57;7.63;;;2.13;;
42200;SDS011;27869;51.442;7.540;2022-10-01T02:16:29;8.43;;;2.10;;
42200;SDS011;27869;51.442;7.540;2022-10-01T02:19:04;8.75;;;2.17;;
42200;SDS011;27869;51.442;7.540;2022-10-01T02:21:38;8.98;;;2.30;;
42200;SDS011;27869;51.442;7.540;2022-10-01T02:24:09;6.40;;;2.00;;
42200;SDS011;27869;51.442;7.540;2022-10-01T02:26:43;7.68;;;2.17;;
42200;SDS011;27869;51.442;7.540;2022-10-01T02:29:16;9.27;;;2.38;;
42200;SDS011;27869;51.442;7.540;2022-10-01T02:31:46;9.55;;;2.20;;
42200;SDS011;27869;51.442;7.540;2022-10-01T02:34:17;7.55;;;2.20;;
42200;SDS011;27869;51.442;7.540;2022-10-01T02:36:45;8.20;;;2.20;;
42200;SDS011;27869;51.442;7.540;2022-10-01T02:39:14;7.90;;;2.08;;
42200;SDS011;27869;51.442;7.540;2022-10-01T02:41:43;6.15;;;1.92;;
42200;SDS011;27869;51.442;7.540;2022-10-01T02:44:13;9.55;;;2.13;;
42200;SDS011;27869;51.442;7.540;2022-10-01T02:46:47;8.45;;;1.92;;
42200;SDS011;27869;51.442;7.540;2022-10-01T02:49:17;6.55;;;1.98;;
42200;SDS011;27869;51.442;7.540;2022-10-01T02:51:47;7.00;;;2.10;;
42200;SDS011;27869;51.442;7.540;2022-10-01T02:54:22;5.57;;;1.80;;
42200;SDS011;27869;51.442;7.540;2022-10-01T02:56:53;7.22;;;1.90;;
42200;SDS011;27869;51.442;7.540;2022-10-01T02:59:40;7.57;;;2.00;;
42200;SDS011;27869;51.442;7.540;2022-10-01T03:02:07;11.45;;;2.10;;
42200;SDS011;27869;51.442;7.540;2022-10-01T03:04:34;6.72;;;1.88;;
42200;SDS011;27869;51.442;7.540;2022-10-01T03:07:01;6.85;;;1.92;;
42200;SDS011;27869;51.442;7.540;2022-10-01T03:09:28;7.10;;;2.70;;
42200;SDS011;27869;51.442;7.540;2022-10-01T03:11:56;7.68;;;2.05;;
42200;SDS011;27869;51.442;7.540;2022-10-01T03:14:23;7.68;;;2.00;;
42200;SDS011;27869;51.442;7.540;2022-10-01T03:16:52;6.97;;;1.85;;
42200;SDS011;27869;51.442;7.540;2022-10-01T03:19:18;7.13;;;2.00;;
42200;SDS011;27869;51.442;7.540;2022-10-01T03:21:46;6.60;;;2.03;;
42200;SDS011;27869;51.442;7.540;2022-10-01T03:24:13;7.53;;;2.00;;
42200;SDS011;27869;51.442;7.540;2022-10-01T03:26:40;8.07;;;2.15;;
42200;SDS011;27869;51.442;7.540;2022-10-01T03:29:07;6.93;;;2.10;;
42200;SDS011;27869;51.442;7.540;2022-10-01T03:31:34;6.25;;;1.88;;
42200;SDS011;27869;51.442;7.540;2022-10-01T03:34:03;9.68;;;2.03;;
42200;SDS011;27869;51.442;7.540;2022-10-01T03:36:30;7.25;;;1.80;;
42200;SDS011;27869;51.442;7.540;2022-10-01T03:38:56;8.63;;;1.80;;
42200;SDS011;27869;51.442;7.540;2022-10-01T03:41:23;7.22;;;1.90;;
42200;SDS011;27869;51.442;7.540;2022-10-01T03:43:50;7.72;;;2.05;;
42200;SDS011;27869;51.442;7.540;2022-10-01T03:46:18;6.30;;;1.60;;
42200;SDS011;27869;51.442;7.540;2022-10-01T03:48:45;6.78;;;2.00;;
42200;SDS011;27869;51.442;7.540;2022-10-01T03:51:14;7.00;;;1.83;;
42200;SDS011;27869;51.442;7.540;2022-10-01T03:53:44;5.28;;;1.65;;
42200;SDS011;27869;51.442;7.540;2022-10-01T03:56:12;9.25;;;1.80;;
42200;SDS011;27869;51.442;7.540;2022-10-01T03:58:38;6.13;;;1.65;;
42200;SDS011;27869;51.442;7.540;2022-10-01T04:01:05;7.22;;;1.73;;
42200;SDS011;27869;51.442;7.540;2022-10-01T04:03:32;8.10;;;1.73;;
42200;SDS011;27869;51.442;7.540;2022-10-01T04:05:59;7.43;;;1.85;;
42200;SDS011;27869;51.442;7.540;2022-10-01T04:08:27;8.73;;;1.70;;
42200;SDS011;27869;51.442;7.540;2022-10-01T04:10:54;5.90;;;1.90;;
42200;SDS011;27869;51.442;7.540;2022-10-01T04:13:21;5.82;;;1.67;;
42200;SDS011;27869;51.442;7.540;2022-10-01T04:15:48;5.45;;;1.67;;
42200;SDS011;27869;51.442;7.540;2022-10-01T04:18:15;9.68;;;1.67;;
42200;SDS011;27869;51.442;7.540;2022-10-01T04:20:43;7.10;;;1.70;;
42200;SDS011;27869;51.442;7.540;2022-10-01T04:23:10;4.93;;;1.67;;
42200;SDS011;27869;51.442;7.540;2022-10-01T04:25:38;5.60;;;1.60;;
42200;SDS011;27869;51.442;7.540;2022-10-01T04:28:06;6.10;;;1.50;;
42200;SDS011;27869;51.442;7.540;2022-10-01T04:30:36;6.80;;;1.60;;
42200;SDS011;27869;51.442;7.540;2022-10-01T04:35:32;4.35;;;1.25;;
42200;SDS011;27869;51.442;7.540;2022-10-01T04:37:59;4.57;;;1.40;;
42200;SDS011;27869;51.442;7.540;2022-10-01T04:40:28;4.00;;;1.38;;
42200;SDS011;27869;51.442;7.540;2022-10-01T04:42:56;4.00;;;1.23;;
42200;SDS011;27869;51.442;7.540;2022-10-01T04:45:23;3.20;;;1.15;;
42200;SDS011;27869;51.442;7.540;2022-10-01T04:47:51;4.28;;;1.40;;
42200;SDS011;27869;51.442;7.540;2022-10-01T04:50:19;4.30;;;1.08;;
42200;SDS011;27869;51.442;7.540;2022-10-01T04:52:47;4.80;;;1.20;;
42200;SDS011;27869;51.442;7.540;2022-10-01T04:55:15;3.97;;;1.30;;
42200;SDS011;27869;51.442;7.540;2022-10-01T04:57:44;3.72;;;1.15;;
42200;SDS011;27869;51.442;7.540;2022-10-01T05:00:13;3.33;;;1.23;;
42200;SDS011;27869;51.442;7.540;2022-10-01T05:02:43;3.17;;;1.05;;
42200;SDS011;27869;51.442;7.540;2022-10-01T05:05:10;2.65;;;1.10;;
42200;SDS011;27869;51.442;7.540;2022-10-01T05:07:38;2.45;;;0.98;;
42200;SDS011;27869;51.442;7.540;2022-10-01T05:10:05;2.38;;;1.00;;
42200;SDS011;27869;51.442;7.540;2022-10-01T05:12:33;2.90;;;1.00;;
42200;SDS011;27869;51.442;7.540;2022-10-01T05:15:00;5.25;;;1.00;;
42200;SDS011;27869;51.442;7.540;2022-10-01T05:17:29;4.38;;;1.23;;
42200;SDS011;27869;51.442;7.540;2022-10-01T05:19:58;3.80;;;1.20;;
42200;SDS011;27869;51.442;7.540;2022-10-01T05:22:25;2.92;;;1.20;;
42200;SDS011;27869;51.442;7.540;2022-10-01T05:24:52;3.00;;;0.95;;
42200;SDS011;27869;51.442;7.540;2022-10-01T05:27:20;1.98;;;0.90;;
42200;SDS011;27869;51.442;7.540;2022-10-01T05:29:47;2.47;;;0.82;;
42200;SDS011;27869;51.442;7.540;2022-10-01T05:32:14;2.53;;;0.90;;
42200;SDS011;27869;51.442;7.540;2022-10-01T05:34:42;3.45;;;0.90;;
42200;SDS011;27869;51.442;7.540;2022-10-01T05:37:09;3.95;;;0.95;;
42200;SDS011;27869;51.442;7.540;2022-10-01T05:39:36;2.22;;;0.77;;
42200;SDS011;27869;51.442;7.540;2022-10-01T05:42:03;4.25;;;0.95;;
42200;SDS011;27869;51.442;7.540;2022-10-01T05:44:30;1.65;;;0.68;;
42200;SDS011;27869;51.442;7.540;2022-10-01T05:47:02;4.82;;;1.25;;
42200;SDS011;27869;51.442;7.540;2022-10-01T05:49:29;3.63;;;1.00;;
42200;SDS011;27869;51.442;7.540;2022-10-01T05:51:58;2.42;;;0.88;;
42200;SDS011;27869;51.442;7.540;2022-10-01T05:54:25;1.83;;;0.90;;
42200;SDS011;27869;51.442;7.540;2022-10-01T05:56:53;3.58;;;0.93;;
42200;SDS011;27869;51.442;7.540;2022-10-01T05:59:20;4.32;;;0.90;;
42200;SDS011;27869;51.442;7.540;2022-10-01T06:01:47;1.25;;;0.60;;
42200;SDS011;27869;51.442;7.540;2022-10-01T06:04:14;2.47;;;0.73;;
42200;SDS011;27869;51.442;7.540;2022-10-01T06:06:41;2.63;;;0.75;;
42200;SDS011;27869;51.442;7.540;2022-10-01T06:09:09;3.65;;;0.93;;
42200;SDS011;27869;51.442;7.540;2022-10-01T06:11:37;0.90;;;0.60;;
42200;SDS011;27869;51.442;7.540;2022-10-01T06:14:04;1.85;;;0.70;;
42200;SDS011;27869;51.442;7.540;2022-10-01T06:16:31;1.25;;;0.50;;
42200;SDS011;27869;51.442;7.540;2022-10-01T06:18:58;1.23;;;0.50;;
42200;SDS011;27869;51.442;7.540;2022-10-01T06:21:25;1.00;;;0.50;;
42200;SDS011;27869;51.442;7.540;2022-10-01T06:23:53;0.93;;;0.70;;
42200;SDS011;27869;51.442;7.540;2022-10-01T06:26:21;2.50;;;0.55;;
42200;SDS011;27869;51.442;7.540;2022-10-01T06:28:48;1.10;;;0.45;;
42200;SDS011;27869;51.442;7.540;2022-10-01T06:31:16;4.32;;;0.68;;
42200;SDS011;27869;51.442;7.540;2022-10-01T06:33:45;3.05;;;0.55;;
42200;SDS011;27869;51.442;7.540;2022-10-01T06:36:12;2.53;;;0.52;;
42200;SDS011;27869;51.442;7.540;2022-10-01T06:38:39;1.08;;;0.52;;
42200;SDS011;27869;51.442;7.540;2022-10-01T06:41:08;1.23;;;0.68;;
42200;SDS011;27869;51.442;7.540;2022-10-01T06:43:36;0.77;;;0.40;;
42200;SDS011;27869;51.442;7.540;2022-10-01T06:46:04;2.05;;;0.60;;
42200;SDS011;27869;51.442;7.540;2022-10-01T06:48:31;1.80;;;0.50;;
42200;SDS011;27869;51.442;7.540;2022-10-01T06:51:00;2.00;;;0.65;;
42200;SDS011;27869;51.442;7.540;2022-10-01T06:53:27;1.38;;;0.50;;
42200;SDS011;27869;51.442;7.540;2022-10-01T06:55:54;1.38;;;0.55;;
42200;SDS011;27869;51.442;7.540;2022-10-01T06:58:22;1.45;;;0.50;;
42200;SDS011;27869;51.442;7.540;2022-10-01T07:00:52;1.65;;;0.40;;
42200;SDS011;27869;51.442;7.540;2022-10-01T07:03:23;0.43;;;0.32;;
42200;SDS011;27869;51.442;7.540;2022-10-01T07:05:50;4.68;;;0.70;;
42200;SDS011;27869;51.442;7.540;2022-10-01T07:08:17;1.48;;;0.47;;
42200;SDS011;27869;51.442;7.540;2022-10-01T07:10:45;2.38;;;0.80;;
42200;SDS011;27869;51.442;7.540;2022-10-01T07:13:12;4.28;;;0.60;;
42200;SDS011;27869;51.442;7.540;2022-10-01T07:15:40;2.38;;;0.73;;
42200;SDS011;27869;51.442;7.540;2022-10-01T07:18:08;1.65;;;0.60;;
42200;SDS011;27869;51.442;7.540;2022-10-01T07:20:36;1.52;;;0.50;;
42200;SDS011;27869;51.442;7.540;2022-10-01T07:23:05;3.00;;;0.60;;
42200;SDS011;27869;51.442;7.540;2022-10-01T07:25:32;1.15;;;0.52;;
42200;SDS011;27869;51.442;7.540;2022-10-01T07:28:00;1.58;;;0.55;;
42200;SDS011;27869;51.442;7.540;2022-10-01T07:30:29;2.38;;;0.50;;
42200;SDS011;27869;51.442;7.540;2022-10-01T07:32:56;1.90;;;0.65;;
42200;SDS011;27869;51.442;7.540;2022-10-01T07:35:25;1.92;;;0.50;;
42200;SDS011;27869;51.442;7.540;2022-10-01T07:37:52;1.67;;;0.63;;
42200;SDS011;27869;51.442;7.540;2022-10-01T07:40:19;2.25;;;0.70;;
42200;SDS011;27869;51.442;7.540;2022-10-01T07:42:51;1.70;;;0.70;;
42200;SDS011;27869;51.442;7.540;2022-10-01T07:45:19;1.48;;;0.80;;
42200;SDS011;27869;51.442;7.540;2022-10-01T07:47:50;2.15;;;0.63;;
42200;SDS011;27869;51.442;7.540;2022-10-01T07:50:19;2.65;;;0.68;;
42200;SDS011;27869;51.442;7.540;2022-10-01T07:52:50;1.95;;;0.70;;
42200;SDS011;27869;51.442;7.540;2022-10-01T07:55:18;2.83;;;0.80;;
42200;SDS011;27869;51.442;7.540;2022-10-01T07:57:48;1.95;;;0.73;;
42200;SDS011;27869;51.442;7.540;2022-10-01T08:00:16;3.45;;;0.90;;
42200;SDS011;27869;51.442;7.540;2022-10-01T08:02:45;2.00;;;0.80;;
42200;SDS011;27869;51.442;7.540;2022-10-01T08:05:13;1.38;;;0.70;;
42200;SDS011;27869;51.442;7.540;2022-10-01T08:07:44;3.28;;;1.00;;
42200;SDS011;27869;51.442;7.540;2022-10-01T08:10:14;2.78;;;0.90;;
42200;SDS011;27869;51.442;7.540;2022-10-01T08:12:42;3.10;;;0.93;;
42200;SDS011;27869;51.442;7.540;2022-10-01T08:15:10;5.47;;;1.50;;
42200;SDS011;27869;51.442;7.540;2022-10-01T08:17:38;6.65;;;1.83;;
42200;SDS011;27869;51.442;7.540;2022-10-01T08:20:05;7.63;;;1.88;;
42200;SDS011;27869;51.442;7.540;2022-10-01T08:22:33;7.40;;;2.00;;
42200;SDS011;27869;51.442;7.540;2022-10-01T08:25:00;6.05;;;1.70;;
42200;SDS011;27869;51.442;7.540;2022-10-01T08:27:29;3.50;;;1.27;;
42200;SDS011;27869;51.442;7.540;2022-10-01T08:29:56;4.85;;;1.30;;
42200;SDS011;27869;51.442;7.540;2022-10-01T08:32:23;3.50;;;0.95;;
42200;SDS011;27869;51.442;7.540;2022-10-01T08:34:52;3.25;;;1.25;;
42200;SDS011;27869;51.442;7.540;2022-10-01T08:37:23;4.63;;;1.52;;
42200;SDS011;27869;51.442;7.540;2022-10-01T08:39:51;4.18;;;1.20;;
42200;SDS011;27869;51.442;7.540;2022-10-01T08:42:32;2.95;;;1.00;;
42200;SDS011;27869;51.442;7.540;2022-10-01T08:45:10;2.65;;;1.35;;
42200;SDS011;27869;51.442;7.540;2022-10-01T08:47:40;3.22;;;1.20;;
42200;SDS011;27869;51.442;7.540;2022-10-01T08:50:11;3.47;;;1.20;;
42200;SDS011;27869;51.442;7.540;2022-10-01T08:52:46;4.78;;;1.13;;
42200;SDS011;27869;51.442;7.540;2022-10-01T08:55:19;2.83;;;1.02;;
42200;SDS011;27869;51.442;7.540;2022-10-01T08:57:50;2.95;;;1.10;;
42200;SDS011;27869;51.442;7.540;2022-10-01T09:00:19;3.03;;;1.20;;
42200;SDS011;27869;51.442;7.540;2022-10-01T09:02:47;1.45;;;0.90;;
42200;SDS011;27869;51.442;7.540;2022-10-01T09:05:19;5.30;;;1.30;;
42200;SDS011;27869;51.442;7.540;2022-10-01T09:07:55;2.83;;;1.00;;
42200;SDS011;27869;51.442;7.540;2022-10-01T09:10:42;1.90;;;1.10;;
42200;SDS011;27869;51.442;7.540;2022-10-01T09:13:20;5.25;;;1.30;;
42200;SDS011;27869;51.442;7.540;2022-10-01T09:16:05;6.43;;;1.52;;
42200;SDS011;27869;51.442;7.540;2022-10-01T09:18:43;3.53;;;1.40;;
42200;SDS011;27869;51.442;7.540;2022-10-01T09:21:18;4.10;;;1.35;;
42200;SDS011;27869;51.442;7.540;2022-10-01T09:23:54;3.90;;;1.42;;
42200;SDS011;27869;51.442;7.540;2022-10-01T09:26:28;5.30;;;1.40;;
42200;SDS011;27869;51.442;7.540;2022-10-01T09:28:57;4.65;;;1.63;;
42200;SDS011;27869;51.442;7.540;2022-10-01T09:31:30;6.32;;;1.52;;
42200;SDS011;27869;51.442;7.540;2022-10-01T09:34:05;6.28;;;1.70;;
42200;SDS011;27869;51.442;7.540;2022-10-01T09:36:44;7.10;;;1.75;;
42200;SDS011;27869;51.442;7.540;2022-10-01T09:39:17;5.25;;;1.60;;
42200;SDS011;27869;51.442;7.540;2022-10-01T09:41:49;10.25;;;2.97;;
42200;SDS011;27869;51.442;7.540;2022-10-01T09:44:20;6.25;;;1.63;;
42200;SDS011;27869;51.442;7.540;2022-10-01T09:46:51;4.25;;;1.70;;
42200;SDS011;27869;51.442;7.540;2022-10-01T09:49:22;5.57;;;1.92;;
42200;SDS011;27869;51.442;7.540;2022-10-01T09:51:56;6.60;;;1.90;;
42200;SDS011;27869;51.442;7.540;2022-10-01T09:54:28;7.97;;;2.17;;
42200;SDS011;27869;51.442;7.540;2022-10-01T09:57:00;5.45;;;1.63;;
42200;SDS011;27869;51.442;7.540;2022-10-01T09:59:35;4.97;;;1.83;;
42200;SDS011;27869;51.442;7.540;2022-10-01T10:02:11;6.85;;;2.03;;
42200;SDS011;27869;51.442;7.540;2022-10-01T10:04:42;12.98;;;2.70;;
42200;SDS011;27869;51.442;7.540;2022-10-01T10:07:10;6.53;;;1.83;;
42200;SDS011;27869;51.442;7.540;2022-10-01T10:09:43;6.55;;;1.80;;
42200;SDS011;27869;51.442;7.540;2022-10-01T10:15:05;5.55;;;1.63;;
42200;SDS011;27869;51.442;7.540;2022-10-01T10:17:34;5.70;;;1.90;;
42200;SDS011;27869;51.442;7.540;2022-10-01T10:20:07;7.20;;;1.83;;
42200;SDS011;27869;51.442;7.540;2022-10-01T10:22:37;9.82;;;2.22;;
42200;SDS011;27869;51.442;7.540;2022-10-01T10:25:09;8.85;;;2.20;;
42200;SDS011;27869;51.442;7.540;2022-10-01T10:27:37;7.22;;;1.90;;
42200;SDS011;27869;51.442;7.540;2022-10-01T10:30:16;6.85;;;1.92;;
42200;SDS011;27869;51.442;7.540;2022-10-01T10:32:43;6.50;;;1.70;;
42200;SDS011;27869;51.442;7.540;2022-10-01T10:35:14;5.38;;;1.60;;
42200;SDS011;27869;51.442;7.540;2022-10-01T10:37:43;6.28;;;1.70;;
42200;SDS011;27869;51.442;7.540;2022-10-01T10:40:15;4.55;;;1.58;;
42200;SDS011;27869;51.442;7.540;2022-10-01T10:42:47;10.02;;;2.00;;
42200;SDS011;27869;51.442;7.540;2022-10-01T10:45:17;3.20;;;1.17;;
42200;SDS011;27869;51.442;7.540;2022-10-01T10:47:48;3.75;;;1.08;;
42200;SDS011;27869;51.442;7.540;2022-10-01T10:50:28;4.70;;;1.20;;
42200;SDS011;27869;51.442;7.540;2022-10-01T10:52:56;4.03;;;1.35;;
42200;SDS011;27869;51.442;7.540;2022-10-01T10:55:24;3.65;;;1.20;;
42200;SDS011;27869;51.442;7.540;2022-10-01T10:57:54;3.22;;;1.10;;
42200;SDS011;27869;51.442;7.540;2022-10-01T11:00:34;3.97;;;1.30;;
42200;SDS011;27869;51.442;7.540;2022-10-01T11:03:10;5.53;;;1.38;;
42200;SDS011;27869;51.442;7.540;2022-10-01T11:05:40;3.45;;;1.08;;
42200;SDS011;27869;51.442;7.540;2022-10-01T11:08:10;3.97;;;1.17;;
42200;SDS011;27869;51.442;7.540;2022-10-01T11:10:46;3.72;;;1.00;;
42200;SDS011;27869;51.442;7.540;2022-10-01T11:13:26;3.70;;;0.85;;
42200;SDS011;27869;51.442;7.540;2022-10-01T11:16:15;4.05;;;1.10;;
42200;SDS011;27869;51.442;7.540;2022-10-01T11:19:00;4.38;;;1.00;;
42200;SDS011;27869;51.442;7.540;2022-10-01T11:21:40;8.95;;;1.52;;
42200;SDS011;27869;51.442;7.540;2022-10-01T11:24:26;4.00;;;1.10;;
42200;SDS011;27869;51.442;7.540;2022-10-01T11:27:04;4.78;;;1.00;;
42200;SDS011;27869;51.442;7.540;2022-10-01T11:29:39;4.70;;;0.82;;
42200;SDS011;27869;51.442;7.540;2022-10-01T11:32:15;7.22;;;0.95;;
42200;SDS011;27869;51.442;7.540;2022-10-01T11:34:56;4.05;;;1.00;;
42200;SDS011;27869;51.442;7.540;2022-10-01T11:37:45;5.45;;;1.13;;
42200;SDS011;27869;51.442;7.540;2022-10-01T11:40:23;5.90;;;1.20;;
42200;SDS011;27869;51.442;7.540;2022-10-01T11:42:54;5.70;;;1.13;;
42200;SDS011;27869;51.442;7.540;2022-10-01T11:45:29;5.00;;;1.17;;
42200;SDS011;27869;51.442;7.540;2022-10-01T11:48:03;8.35;;;1.42;;
42200;SDS011;27869;51.442;7.540;2022-10-01T11:50:34;9.35;;;1.70;;
42200;SDS011;27869;51.442;7.540;2022-10-01T11:53:06;7.05;;;1.48;;
42200;SDS011;27869;51.442;7.540;2022-10-01T11:55:39;8.85;;;1.73;;
42200;SDS011;27869;51.442;7.540;2022-10-01T11:58:28;9.40;;;1.63;;
42200;SDS011;27869;51.442;7.540;2022-10-01T12:01:21;8.52;;;1.60;;
42200;SDS011;27869;51.442;7.540;2022-10-01T12:03:59;8.63;;;1.60;;
42200;SDS011;27869;51.442;7.540;2022-10-01T12:06:31;9.23;;;1.73;;
42200;SDS011;27869;51.442;7.540;2022-10-01T12:09:04;10.60;;;1.80;;
42200;SDS011;27869;51.442;7.540;2022-10-01T12:11:36;7.28;;;1.52;;
42200;SDS011;27869;51.442;7.540;2022-10-01T12:14:09;8.60;;;1.80;;
42200;SDS011;27869;51.442;7.540;2022-10-01T12:16:42;11.68;;;1.80;;
42200;SDS011;27869;51.442;7.540;2022-10-01T12:19:17;8.65;;;1.70;;
42200;SDS011;27869;51.442;7.540;2022-10-01T12:21:49;6.88;;;1.52;;
42200;SDS011;27869;51.442;7.540;2022-10-01T12:24:21;10.50;;;1.50;;
42200;SDS011;27869;51.442;7.540;2022-10-01T12:26:55;8.63;;;1.90;;
42200;SDS011;27869;51.442;7.540;2022-10-01T12:29:32;12.60;;;1.77;;
42200;SDS011;27869;51.442;7.540;2022-10-01T12:32:10;6.40;;;1.17;;
42200;SDS011;27869;51.442;7.540;2022-10-01T12:34:48;4.07;;;1.13;;
42200;SDS011;27869;51.442;7.540;2022-10-01T12:37:24;8.75;;;1.40;;
42200;SDS011;27869;51.442;7.540;2022-10-01T12:40:08;8.38;;;1.60;;
42200;SDS011;27869;51.442;7.540;2022-10-01T12:45:29;11.25;;;1.70;;
42200;SDS011;27869;51.442;7.540;2022-10-01T12:48:08;9.65;;;2.00;;
42200;SDS011;27869;51.442;7.540;2022-10-01T12:50:47;9.18;;;1.73;;
42200;SDS011;27869;51.442;7.540;2022-10-01T12:53:23;7.18;;;1.52;;
42200;SDS011;27869;51.442;7.540;2022-10-01T12:55:58;9.63;;;1.92;;
42200;SDS011;27869;51.442;7.540;2022-10-01T12:58:37;8.60;;;2.03;;
42200;SDS011;27869;51.442;7.540;2022-10-01T13:01:28;10.80;;;2.22;;
42200;SDS011;27869;51.442;7.540;2022-10-01T13:07:06;10.57;;;1.98;;
42200;SDS011;27869;51.442;7.540;2022-10-01T13:09:59;8.88;;;1.90;;
42200;SDS011;27869;51.442;7.540;2022-10-01T13:15:22;11.50;;;2.03;;
42200;SDS011;27869;51.442;7.540;2022-10-01T13:17:53;11.00;;;2.00;;
42200;SDS011;27869;51.442;7.540;2022-10-01T13:20:26;11.60;;;2.30;;
42200;SDS011;27869;51.442;7.540;2022-10-01T13:23:00;13.43;;;2.45;;
42200;SDS011;27869;51.442;7.540;2022-10-01T13:28:09;8.43;;;1.95;;
42200;SDS011;27869;51.442;7.540;2022-10-01T13:30:45;8.18;;;1.92;;
42200;SDS011;27869;51.442;7.540;2022-10-01T13:33:24;11.57;;;1.85;;
42200;SDS011;27869;51.442;7.540;2022-10-01T13:35:54;8.07;;;1.70;;
42200;SDS011;27869;51.442;7.540;2022-10-01T13:38:28;9.18;;;1.88;;
42200;SDS011;27869;51.442;7.540;2022-10-01T13:43:32;9.10;;;1.50;;
42200;SDS011;27869;51.442;7.540;2022-10-01T13:46:04;11.85;;;1.67;;
42200;SDS011;27869;51.442;7.540;2022-10-01T13:48:33;14.27;;;2.05;;
42200;SDS011;27869;51.442;7.540;2022-10-01T13:51:03;9.32;;;1.50;;
42200;SDS011;27869;51.442;7.540;2022-10-01T13:53:35;13.10;;;1.40;;
42200;SDS011;27869;51.442;7.540;2022-10-01T13:56:04;11.73;;;1.55;;
42200;SDS011;27869;51.442;7.540;2022-10-01T13:58:36;8.57;;;1.50;;
42200;SDS011;27869;51.442;7.540;2022-10-01T14:01:05;11.13;;;1.60;;
42200;SDS011;27869;51.442;7.540;2022-10-01T14:03:54;12.65;;;1.42;;
42200;SDS011;27869;51.442;7.540;2022-10-01T14:06:28;13.02;;;1.70;;
42200;SDS011;27869;51.442;7.540;2022-10-01T14:09:05;12.88;;;1.60;;
42200;SDS011;27869;51.442;7.540;2022-10-01T14:11:40;10.45;;;1.80;;
42200;SDS011;27869;51.442;7.540;2022-10-01T14:14:28;11.60;;;1.52;;
42200;SDS011;27869;51.442;7.540;2022-10-01T14:17:17;9.63;;;1.77;;
42200;SDS011;27869;51.442;7.540;2022-10-01T14:19:47;11.50;;;1.90;;
42200;SDS011;27869;51.442;7.540;2022-10-01T14:22:18;10.68;;;1.80;;
42200;SDS011;27869;51.442;7.540;2022-10-01T14:25:03;9.52;;;1.80;;
42200;SDS011;27869;51.442;7.540;2022-10-01T14:27:46;14.73;;;1.88;;
42200;SDS011;27869;51.442;7.540;2022-10-01T14:30:21;12.23;;;2.00;;
42200;SDS011;27869;51.442;7.540;2022-10-01T14:32:57;12.38;;;2.22;;
42200;SDS011;27869;51.442;7.540;2022-10-01T14:35:39;16.50;;;2.42;;
42200;SDS011;27869;51.442;7.540;2022-10-01T14:38:12;16.20;;;2.95;;
42200;SDS011;27869;51.442;7.540;2022-10-01T14:40:46;12.43;;;1.88;;
42200;SDS011;27869;51.442;7.540;2022-10-01T14:43:15;15.77;;;2.17;;
42200;SDS011;27869;51.442;7.540;2022-10-01T14:45:54;12.60;;;2.20;;
42200;SDS011;27869;51.442;7.540;2022-10-01T14:48:23;12.82;;;2.53;;
42200;SDS011;27869;51.442;7.540;2022-10-01T14:50:51;11.55;;;1.75;;
42200;SDS011;27869;51.442;7.540;2022-10-01T14:53:21;12.18;;;1.90;;
42200;SDS011;27869;51.442;7.540;2022-10-01T14:55:51;8.82;;;1.75;;
42200;SDS011;27869;51.442;7.540;2022-10-01T14:58:20;11.10;;;1.95;;
42200;SDS011;27869;51.442;7.540;2022-10-01T15:00:51;17.65;;;2.20;;
42200;SDS011;27869;51.442;7.540;2022-10-01T15:05:47;6.90;;;1.67;;
42200;SDS011;27869;51.442;7.540;2022-10-01T15:08:16;11.40;;;1.40;;
42200;SDS011;27869;51.442;7.540;2022-10-01T15:10:47;11.98;;;1.50;;
42200;SDS011;27869;51.442;7.540;2022-10-01T15:13:19;8.75;;;1.40;;
42200;SDS011;27869;51.442;7.540;2022-10-01T15:15:49;9.10;;;1.50;;
42200;SDS011;27869;51.442;7.540;2022-10-01T15:18:17;10.82;;;1.85;;
42200;SDS011;27869;51.442;7.540;2022-10-01T15:20:52;9.43;;;1.45;;
42200;SDS011;27869;51.442;7.540;2022-10-01T15:23:21;9.95;;;2.05;;
42200;SDS011;27869;51.442;7.540;2022-10-01T15:25:51;7.55;;;1.90;;
42200;SDS011;27869;51.442;7.540;2022-10-01T15:28:25;12.18;;;1.85;;
42200;SDS011;27869;51.442;7.540;2022-10-01T15:30:56;11.48;;;2.15;;
42200;SDS011;27869;51.442;7.540;2022-10-01T15:33:25;10.93;;;1.60;;
42200;SDS011;27869;51.442;7.540;2022-10-01T15:38:24;9.15;;;1.70;;